Time;durP1;ratioP1;P1;durP2;ratioP2;P2;SDS_P1;SDS_P2;PMS_P1;PMS_P2;Temp;Humidity;BMP_temperature;BMP_pressure;BME280_temperature;BME280_humidity;BME280_pressure;Samples;Min_cycle;Max_cycle;Signal;HPM_P1;HPM_P2
2022/07/05 00:00:16;;;;;;;7.53;3.97;;;;;;;21.35;62.12;100404.44;5032777;28;20132;-77
2022/07/05 00:02:42;;;;;;;8.93;5.20;;;;;;;21.40;62.17;100413.53;5037805;28;20135;-76
2022/07/05 00:05:09;;;;;;;7.45;4.40;;;;;;;21.39;61.84;100408.19;5042526;28;20144;-76
2022/07/05 00:07:37;;;;;;;11.27;4.18;;;;;;;21.47;61.68;100424.28;5044597;28;20107;-77
2022/07/05 00:10:04;;;;;;;8.43;4.55;;;;;;;21.47;61.77;100429.97;5032985;28;20132;-79
2022/07/05 00:12:32;;;;;;;6.57;3.63;;;;;;;21.42;62.15;100410.34;5036722;28;20085;-79
2022/07/05 00:15:00;;;;;;;6.40;3.92;;;;;;;21.44;61.99;100420.16;5033963;28;20092;-79
2022/07/05 00:17:27;;;;;;;8.95;4.32;;;;;;;21.33;62.33;100401.91;5051763;28;20076;-80
2022/07/05 00:19:54;;;;;;;6.32;3.55;;;;;;;21.37;62.35;100400.06;5052371;28;20052;-77
2022/07/05 00:22:21;;;;;;;6.00;3.13;;;;;;;21.17;61.91;100369.75;5051039;28;20136;-78
2022/07/05 00:24:55;;;;;;;6.45;3.40;;;;;;;21.38;62.21;100407.38;5048854;28;20399;-78
2022/07/05 00:27:22;;;;;;;8.00;3.20;;;;;;;21.29;62.10;100395.28;5053243;28;20080;-80
2022/07/05 00:29:49;;;;;;;7.18;3.33;;;;;;;21.31;61.96;100415.66;5047898;28;20045;-79
2022/07/05 00:32:16;;;;;;;7.00;3.30;;;;;;;21.42;61.81;100418.84;5046826;28;20080;-79
2022/07/05 00:34:43;;;;;;;5.93;3.35;;;;;;;21.13;61.55;100363.97;5036171;28;20563;-76
2022/07/05 00:37:11;;;;;;;8.32;3.03;;;;;;;21.41;61.72;100409.50;5041648;28;20665;-76
2022/07/05 00:39:38;;;;;;;5.85;3.08;;;;;;;21.40;61.73;100407.00;5051016;28;20153;-74
2022/07/05 00:42:05;;;;;;;4.55;2.55;;;;;;;21.45;61.81;100426.66;5040570;28;20132;-75
2022/07/05 00:44:35;;;;;;;6.20;2.75;;;;;;;21.43;61.66;100421.31;5042480;28;20125;-74
2022/07/05 00:47:04;;;;;;;7.53;3.38;;;;;;;21.40;61.46;100416.38;5042544;28;20077;-75
2022/07/05 00:49:33;;;;;;;6.38;3.10;;;;;;;21.10;61.59;100363.84;5032136;28;20133;-74
2022/07/05 00:52:00;;;;;;;7.65;3.55;;;;;;;21.44;61.78;100411.63;5046770;28;20151;-77
2022/07/05 00:54:45;;;;;;;11.25;3.28;;;;;;;21.47;61.33;100415.75;5038722;28;20132;-77
2022/07/05 00:57:13;;;;;;;6.43;3.08;;;;;;;21.21;61.23;100379.22;5035557;28;20069;-76
2022/07/05 00:59:40;;;;;;;7.50;4.05;;;;;;;21.36;61.97;100406.91;5039343;28;20145;-73
2022/07/05 01:02:07;;;;;;;11.70;4.88;;;;;;;21.45;61.57;100401.09;5038519;28;20077;-73
2022/07/05 01:04:34;;;;;;;7.60;4.40;;;;;;;21.34;61.74;100386.56;5039522;28;20133;-74
2022/07/05 01:07:03;;;;;;;10.05;3.80;;;;;;;21.52;61.29;100407.81;5043705;28;20128;-74
2022/07/05 01:09:30;;;;;;;11.05;4.38;;;;;;;21.11;61.54;100354.13;5037379;28;20425;-74
2022/07/05 01:11:57;;;;;;;7.95;3.92;;;;;;;21.47;61.61;100402.41;5041407;28;20096;-75
2022/07/05 01:14:24;;;;;;;9.23;3.97;;;;;;;21.33;61.67;100379.16;5044593;28;20103;-76
2022/07/05 01:16:53;;;;;;;8.15;4.10;;;;;;;21.47;61.58;100408.09;5055071;28;20084;-75
2022/07/05 01:19:21;;;;;;;8.45;4.18;;;;;;;21.29;61.43;100378.25;5056443;28;20132;-75
2022/07/05 01:21:50;;;;;;;8.80;4.07;;;;;;;21.41;61.44;100385.97;5052502;28;20053;-75
2022/07/05 01:24:18;;;;;;;7.18;4.22;;;;;;;21.47;61.46;100399.56;5054581;28;20049;-81
2022/07/05 01:26:48;;;;;;;10.27;5.10;;;;;;;21.33;61.72;100379.16;5061885;28;20041;-79
2022/07/05 01:29:15;;;;;;;;;;;;;;;21.49;61.66;100405.69;5066976;28;20046;-79
2022/07/05 01:31:42;;;;;;;10.73;5.28;;;;;;;21.27;61.70;100375.78;5063584;28;19921;-79
2022/07/05 01:34:10;;;;;;;10.10;6.30;;;;;;;21.38;61.50;100398.84;5068246;28;20049;-77
2022/07/05 01:36:38;;;;;;;13.32;5.72;;;;;;;21.46;61.73;100409.25;5057228;28;20059;-71
2022/07/05 01:39:06;;;;;;;10.27;5.38;;;;;;;21.47;61.55;100399.56;5037422;28;20080;-70
2022/07/05 01:41:33;;;;;;;9.50;5.70;;;;;;;21.51;61.47;100406.19;5039770;28;20136;-71
2022/07/05 01:44:01;;;;;;;14.02;6.13;;;;;;;21.31;62.07;100370.19;5040385;28;20072;-73
2022/07/05 01:46:37;;;;;;;9.57;6.13;;;;;;;21.39;61.72;100396.84;5039996;28;20077;-74
2022/07/05 01:49:08;;;;;;;13.32;7.60;;;;;;;21.48;61.55;100400.38;5035640;28;20148;-74
2022/07/05 01:51:49;;;;;;;10.93;6.53;;;;;;;21.44;61.77;100397.44;5035841;28;20084;-73
2022/07/05 01:54:18;;;;;;;11.82;5.95;;;;;;;21.52;61.65;100416.34;5037076;28;20061;-75
2022/07/05 01:56:45;;;;;;;11.45;6.95;;;;;;;21.42;61.91;100384.75;5043602;28;20084;-73
2022/07/05 01:59:12;;;;;;;17.55;7.10;;;;;;;21.54;61.83;100401.81;5053081;28;20542;-73
2022/07/05 02:01:40;;;;;;;10.65;6.43;;;;;;;21.46;61.52;100388.53;5050912;28;20193;-72
2022/07/05 02:04:10;;;;;;;18.77;7.60;;;;;;;21.53;61.54;100398.09;5053977;28;20044;-72
2022/07/05 02:06:37;;;;;;;;;;;;;;;21.48;61.46;100387.00;5042092;28;20060;-72
2022/07/05 02:09:06;;;;;;;12.48;6.22;;;;;;;21.11;61.46;100315.22;5042531;28;20026;-73
2022/07/05 02:11:33;;;;;;;14.63;6.88;;;;;;;21.47;61.44;100378.81;5045650;28;20512;-73
2022/07/05 02:14:00;;;;;;;16.73;6.35;;;;;;;21.45;61.63;100387.72;5043358;28;20076;-71
2022/07/05 02:16:29;;;;;;;11.57;6.65;;;;;;;21.41;61.66;100368.91;5032538;28;20056;-73
2022/07/05 02:18:57;;;;;;;13.32;6.80;;;;;;;21.42;61.84;100379.09;5043439;28;20103;-73
2022/07/05 02:21:24;;;;;;;17.15;6.18;;;;;;;21.32;61.69;100360.47;5041488;28;20057;-72
2022/07/05 02:23:51;;;;;;;10.98;6.50;;;;;;;21.32;61.76;100366.16;5038571;28;20049;-72
2022/07/05 02:26:18;;;;;;;9.35;5.88;;;;;;;21.33;61.89;100367.81;5048872;28;20491;-72
2022/07/05 02:28:45;;;;;;;14.38;6.50;;;;;;;21.32;61.35;100377.53;5034830;28;20161;-72
2022/07/05 02:31:12;;;;;;;9.70;6.00;;;;;;;21.39;61.85;100379.78;5043686;28;20472;-70
2022/07/05 02:33:39;;;;;;;12.05;6.78;;;;;;;21.34;62.32;100388.53;5035612;28;20123;-71
2022/07/05 02:36:11;;;;;;;9.95;6.13;;;;;;;21.17;62.27;100364.06;5035862;28;20076;-71
2022/07/05 02:38:39;;;;;;;10.85;5.90;;;;;;;21.12;62.42;100350.94;5039827;28;20088;-71
2022/07/05 02:41:10;;;;;;;12.95;6.25;;;;;;;21.34;62.26;100378.03;5045800;28;20076;-71
2022/07/05 02:43:38;;;;;;;10.90;6.32;;;;;;;21.14;62.02;100348.56;5053223;28;20087;-71
2022/07/05 02:46:06;;;;;;;15.40;7.28;;;;;;;21.43;61.82;100387.22;5049500;28;20131;-71
2022/07/05 02:48:36;;;;;;;11.43;6.05;;;;;;;21.42;61.81;100387.59;5042588;28;20496;-71
2022/07/05 02:51:04;;;;;;;8.85;6.78;;;;;;;21.32;62.29;100371.84;5053309;28;20147;-71
2022/07/05 02:53:31;;;;;;;10.85;6.15;;;;;;;21.37;62.17;100371.66;5050031;28;20045;-71
2022/07/05 02:55:58;;;;;;;13.33;5.77;;;;;;;21.42;62.06;100385.59;5001641;28;1395259;-72
2022/07/05 02:58:25;;;;;;;8.98;5.55;;;;;;;21.46;62.11;100389.38;5048720;28;20128;-74
2022/07/05 03:00:52;;;;;;;12.60;6.97;;;;;;;21.38;61.86;100381.81;5046001;28;20132;-72
2022/07/05 03:03:19;;;;;;;14.10;6.05;;;;;;;21.34;61.88;100368.66;5049499;28;20060;-72
2022/07/05 03:05:46;;;;;;;12.02;5.38;;;;;;;21.32;62.19;100377.53;5051388;28;20148;-72
2022/07/05 03:08:13;;;;;;;13.18;7.13;;;;;;;21.35;62.18;100381.69;5051550;28;20148;-73
2022/07/05 03:10:40;;;;;;;13.50;6.93;;;;;;;21.35;62.22;100378.88;5046742;28;20148;-73
2022/07/05 03:13:07;;;;;;;11.18;5.85;;;;;;;21.09;62.02;100345.13;5040504;28;20132;-74
2022/07/05 03:15:34;;;;;;;11.52;6.25;;;;;;;21.21;62.31;100370.69;5039146;28;20493;-73
2022/07/05 03:18:01;;;;;;;12.27;7.07;;;;;;;21.04;62.44;100352.72;5040952;28;20053;-73
2022/07/05 03:20:28;;;;;;;19.23;7.40;;;;;;;21.12;62.27;100364.31;5042577;28;20103;-73
2022/07/05 03:22:55;;;;;;;12.00;6.32;;;;;;;21.13;62.35;100363.09;5034271;28;20085;-73
2022/07/05 03:25:22;;;;;;;12.23;7.32;;;;;;;21.11;62.54;100365.50;5039402;28;20692;-73
2022/07/05 03:27:49;;;;;;;14.05;6.38;;;;;;;21.03;62.71;100350.25;5042610;28;20175;-72
2022/07/05 03:30:16;;;;;;;14.05;7.47;;;;;;;21.13;62.81;100369.63;5052751;28;20519;-73
2022/07/05 03:32:43;;;;;;;14.38;7.22;;;;;;;21.05;62.81;100362.88;5033663;28;20135;-75
2022/07/05 03:35:10;;;;;;;13.35;6.25;;;;;;;21.06;62.84;100364.56;5032632;28;20049;-76
2022/07/05 03:37:37;;;;;;;11.95;7.00;;;;;;;21.13;62.46;100368.78;5039944;28;20155;-75
2022/07/05 03:40:05;;;;;;;9.63;6.50;;;;;;;21.04;62.80;100360.41;5051996;28;20076;-75
2022/07/05 03:42:34;;;;;;;12.73;7.43;;;;;;;21.09;62.73;100376.38;5031987;28;20128;-76
2022/07/05 03:45:03;;;;;;;15.37;6.80;;;;;;;21.06;62.79;100372.25;5046300;28;20045;-72
2022/07/05 03:47:30;;;;;;;10.82;6.28;;;;;;;20.89;62.88;100346.91;5049833;28;20301;-72
2022/07/05 03:49:57;;;;;;;12.82;7.15;;;;;;;20.95;62.77;100366.19;5040105;28;20128;-71
2022/07/05 03:52:24;;;;;;;11.10;6.05;;;;;;;20.84;62.80;100345.16;5038544;28;20419;-75
2022/07/05 03:54:52;;;;;;;14.13;6.30;;;;;;;20.99;63.11;100375.69;5042417;28;20080;-73
2022/07/05 03:57:20;;;;;;;12.80;7.20;;;;;;;20.88;63.29;100351.78;5033329;28;20132;-73
2022/07/05 03:59:47;;;;;;;10.43;5.85;;;;;;;20.99;63.19;100352.13;5038924;28;20563;-74
2022/07/05 04:02:14;;;;;;;13.60;6.03;;;;;;;20.91;63.26;100333.22;5050236;28;20053;-74
2022/07/05 04:04:41;;;;;;;10.48;6.00;;;;;;;20.86;63.42;100337.13;5033505;28;20124;-75
2022/07/05 04:07:08;;;;;;;10.63;6.05;;;;;;;20.98;63.52;100359.81;5039742;28;20049;-73
2022/07/05 04:09:35;;;;;;;16.00;7.55;;;;;;;21.05;63.14;100367.72;5033815;28;20143;-74
2022/07/05 04:12:03;;;;;;;12.50;5.65;;;;;;;21.05;62.88;100357.19;5034381;28;20046;-74
2022/07/05 04:14:30;;;;;;;10.05;7.10;;;;;;;21.08;63.22;100367.03;5039396;28;20143;-75
2022/07/05 04:16:57;;;;;;;16.70;6.63;;;;;;;21.08;63.07;100355.66;5038835;28;20049;-77
2022/07/05 04:19:24;;;;;;;16.30;7.07;;;;;;;21.04;62.94;100357.56;5037875;28;20049;-77
2022/07/05 04:21:51;;;;;;;16.63;7.57;;;;;;;21.04;63.22;100358.41;5034364;28;20132;-77
2022/07/05 04:24:18;;;;;;;12.77;6.20;;;;;;;21.03;63.00;100353.91;5048451;28;20148;-76
2022/07/05 04:26:44;;;;;;;13.45;5.97;;;;;;;21.09;63.15;100368.66;5034385;28;20045;-77
2022/07/05 04:29:12;;;;;;;18.48;7.85;;;;;;;21.02;63.14;100352.22;5036648;28;20132;-77
2022/07/05 04:31:38;;;;;;;11.30;6.70;;;;;;;21.10;63.09;100358.16;5038709;28;20058;-77
2022/07/05 04:34:06;;;;;;;15.15;6.82;;;;;;;20.91;63.02;100322.69;5032461;28;20049;-77
2022/07/05 04:36:33;;;;;;;14.13;6.97;;;;;;;21.05;63.12;100350.69;5032402;28;20055;-77
2022/07/05 04:39:00;;;;;;;12.73;7.30;;;;;;;21.08;63.25;100354.84;5031876;28;20082;-72
2022/07/05 04:41:27;;;;;;;16.58;7.43;;;;;;;20.94;63.26;100333.31;5038343;28;20076;-73
2022/07/05 04:43:54;;;;;;;19.13;8.55;;;;;;;21.15;63.18;100369.28;5046521;28;20490;-72
2022/07/05 04:46:21;;;;;;;13.57;7.82;;;;;;;21.16;62.96;100363.25;5035560;28;20085;-72
2022/07/05 04:48:48;;;;;;;22.02;7.63;;;;;;;21.13;63.48;100366.81;5039732;28;20132;-73
2022/07/05 04:51:15;;;;;;;15.77;7.40;;;;;;;21.16;63.25;100368.06;5052434;28;20076;-73
2022/07/05 04:53:42;;;;;;;10.48;7.10;;;;;;;21.13;62.96;100360.25;5034328;28;20064;-73
2022/07/05 04:56:09;;;;;;;14.25;7.50;;;;;;;21.04;63.36;100364.06;5037159;28;20056;-73
2022/07/05 04:58:36;;;;;;;15.27;8.13;;;;;;;21.12;63.22;100373.66;5051153;28;20543;-71
2022/07/05 05:01:03;;;;;;;13.63;8.00;;;;;;;21.09;63.10;100368.66;5046707;28;20079;-71
2022/07/05 05:03:30;;;;;;;15.15;8.10;;;;;;;21.10;63.20;100366.69;5045190;28;20072;-71
2022/07/05 05:05:57;;;;;;;15.48;8.90;;;;;;;21.06;63.21;100367.41;5034979;28;20456;-72
2022/07/05 05:08:24;;;;;;;14.35;8.88;;;;;;;20.91;63.36;100341.72;5051392;28;20211;-73
2022/07/05 05:10:51;;;;;;;15.43;8.15;;;;;;;20.99;63.04;100361.50;5046152;28;20395;-72
2022/07/05 05:13:18;;;;;;;13.45;8.30;;;;;;;21.07;63.18;100365.38;5033768;28;20077;-72
2022/07/05 05:15:45;;;;;;;15.02;8.65;;;;;;;21.15;63.35;100383.47;5032831;28;20073;-72
2022/07/05 05:18:13;;;;;;;12.95;8.93;;;;;;;21.03;63.17;100359.59;5035768;28;20053;-72
2022/07/05 05:20:40;;;;;;;17.23;8.65;;;;;;;21.12;63.20;100379.31;5043630;28;20132;-73
2022/07/05 05:23:07;;;;;;;22.73;9.23;;;;;;;21.06;63.43;100378.75;5033034;28;20503;-72
2022/07/05 05:25:35;;;;;;;13.80;8.15;;;;;;;20.82;64.17;100361.72;5031492;28;20452;-72
2022/07/05 05:28:03;;;;;;;17.30;9.07;;;;;;;20.69;63.94;100332.50;5038363;28;20369;-72
2022/07/05 05:30:30;;;;;;;13.85;9.10;;;;;;;20.97;63.76;100368.69;5044618;28;20092;-72
2022/07/05 05:32:57;;;;;;;14.27;8.55;;;;;;;21.10;63.39;100383.72;5049822;28;20083;-72
2022/07/05 05:35:24;;;;;;;17.88;9.35;;;;;;;21.00;63.53;100383.00;5036450;28;20103;-72
2022/07/05 05:37:53;;;;;;;13.38;7.68;;;;;;;21.13;63.85;100386.69;5032156;28;20136;-73
2022/07/05 05:40:21;;;;;;;17.45;8.07;;;;;;;21.16;63.61;100385.97;5031931;28;20424;-73
2022/07/05 05:42:48;;;;;;;16.48;8.75;;;;;;;21.25;63.14;100372.44;5038222;28;20049;-73
2022/07/05 05:45:16;;;;;;;13.82;8.57;;;;;;;21.30;63.30;100371.41;5041009;28;20132;-73
2022/07/05 05:47:46;;;;;;;11.50;8.07;;;;;;;21.39;63.07;100374.94;5038900;28;20128;-72
2022/07/05 05:50:14;;;;;;;12.88;7.07;;;;;;;21.63;62.66;100384.59;5042111;28;20140;-74
2022/07/05 05:52:40;;;;;;;13.05;7.70;;;;;;;21.81;62.37;100390.81;5039331;28;20077;-74
2022/07/05 05:55:08;;;;;;;11.43;6.97;;;;;;;21.87;62.46;100375.97;5037152;28;20191;-73
2022/07/05 05:57:36;;;;;;;12.77;6.82;;;;;;;22.01;61.84;100392.63;5039996;28;20093;-73
2022/07/05 06:00:05;;;;;;;13.63;7.00;;;;;;;22.03;61.85;100380.91;5033286;28;20129;-73
2022/07/05 06:02:33;;;;;;;12.98;7.32;;;;;;;22.19;61.62;100399.69;5034711;28;20077;-72
2022/07/05 06:05:00;;;;;;;11.82;7.43;;;;;;;22.17;61.76;100372.81;5043367;28;20754;-73
2022/07/05 06:07:27;;;;;;;13.80;8.13;;;;;;;22.56;61.08;100395.81;5046224;28;20085;-72
2022/07/05 06:09:54;;;;;;;8.85;6.72;;;;;;;22.68;60.91;100401.44;5048123;28;20259;-72
2022/07/05 06:12:21;;;;;;;15.77;7.13;;;;;;;22.66;61.18;100396.06;5039689;28;20128;-72
2022/07/05 06:14:48;;;;;;;16.65;8.32;;;;;;;22.80;60.87;100395.63;5047726;28;20076;-72
2022/07/05 06:17:15;;;;;;;15.13;7.50;;;;;;;22.90;60.58;100403.63;5041931;28;20053;-72
2022/07/05 06:19:42;;;;;;;12.60;7.35;;;;;;;23.06;60.57;100409.34;5048726;28;20081;-72
2022/07/05 06:22:09;;;;;;;14.20;7.20;;;;;;;23.27;60.20;100411.88;5042305;28;20057;-72
2022/07/05 06:24:36;;;;;;;16.42;8.23;;;;;;;23.37;59.48;100390.53;5049343;28;20049;-74
2022/07/05 06:27:04;;;;;;;18.15;8.10;;;;;;;23.70;59.49;100410.06;5041725;28;20131;-73
2022/07/05 06:29:31;;;;;;;13.65;7.65;;;;;;;23.85;58.67;100405.50;5049161;28;20132;-72
2022/07/05 06:31:59;;;;;;;12.70;7.38;;;;;;;23.82;58.72;100392.81;5043998;28;20132;-71
2022/07/05 06:34:26;;;;;;;16.95;8.05;;;;;;;24.12;58.33;100420.75;5034838;28;20076;-73
2022/07/05 06:36:53;;;;;;;14.60;7.45;;;;;;;24.34;57.89;100419.13;5039961;28;20146;-72
2022/07/05 06:39:20;;;;;;;19.38;7.93;;;;;;;24.26;57.54;100381.06;5040649;28;20143;-72
2022/07/05 06:41:47;;;;;;;16.00;8.38;;;;;;;24.62;57.33;100410.34;5044066;28;20140;-71
2022/07/05 06:44:14;;;;;;;17.90;8.82;;;;;;;24.81;56.97;100418.84;5048654;28;20116;-74
2022/07/05 06:47:01;;;;;;;23.73;11.98;;;;;;;25.10;56.65;100436.50;5043653;28;20049;-71
2022/07/05 06:49:28;;;;;;;20.58;11.90;;;;;;;25.28;56.23;100420.47;5051603;28;20049;-71
2022/07/05 06:51:55;;;;;;;15.73;8.73;;;;;;;25.76;55.28;100440.00;5044545;28;20081;-71
2022/07/05 06:54:22;;;;;;;19.10;9.63;;;;;;;26.06;54.83;100439.22;5036545;28;20049;-71
2022/07/05 06:57:10;;;;;;;15.05;7.93;;;;;;;25.88;54.28;100373.16;5049115;28;20053;-73
2022/07/05 06:59:57;;;;;;;13.63;7.22;;;;;;;26.37;53.63;100430.19;5036513;28;20426;-71
2022/07/05 07:02:25;;;;;;;19.63;11.88;;;;;;;26.73;53.66;100452.69;5046230;28;20140;-71
2022/07/05 07:04:52;;;;;;;19.98;11.70;;;;;;;26.83;53.20;100437.66;5044817;28;20439;-72
2022/07/05 07:10:23;;;;;;;12.73;7.75;;;;;;;27.10;52.43;100442.00;5046260;28;20108;-72
2022/07/05 07:12:59;;;;;;;14.40;7.75;;;;;;;27.37;52.30;100453.31;5045689;28;20048;-71
2022/07/05 07:15:26;;;;;;;16.45;9.57;;;;;;;27.54;51.80;100446.06;5040467;28;20103;-72
2022/07/05 07:17:53;;;;;;;14.20;8.65;;;;;;;27.62;51.07;100442.88;5044203;28;20060;-72
2022/07/05 07:20:20;;;;;;;11.20;8.25;;;;;;;27.82;50.99;100448.31;5044883;28;20483;-75
2022/07/05 07:22:48;;;;;;;14.77;7.93;;;;;;;27.97;50.56;100458.69;5043147;28;20136;-72
2022/07/05 07:25:15;;;;;;;21.20;9.27;;;;;;;28.03;50.36;100450.47;5036719;28;20115;-72
2022/07/05 07:27:47;;;;;;;16.05;9.43;;;;;;;28.25;49.93;100445.69;5031879;28;20479;-71
2022/07/05 07:30:16;;;;;;;16.65;10.13;;;;;;;28.30;49.23;100434.59;5041880;28;20061;-72
2022/07/05 07:32:44;;;;;;;17.10;9.90;;;;;;;28.56;49.31;100459.34;5040657;28;20110;-72
2022/07/05 07:35:11;;;;;;;15.95;9.05;;;;;;;28.75;49.06;100461.06;5038645;28;20089;-72
2022/07/05 07:37:38;;;;;;;15.82;8.70;;;;;;;28.83;48.41;100459.00;5052283;28;20127;-71
2022/07/05 07:40:06;;;;;;;21.25;10.30;;;;;;;28.97;48.50;100459.03;5041434;28;20050;-71
2022/07/05 07:42:34;;;;;;;17.70;11.25;;;;;;;29.10;47.96;100444.28;5048058;28;20067;-71
2022/07/05 07:45:03;;;;;;;15.63;9.48;;;;;;;29.10;47.56;100444.28;5048874;28;20128;-72
2022/07/05 07:47:32;;;;;;;20.38;10.07;;;;;;;29.20;47.58;100435.66;5045926;28;20049;-72
2022/07/05 07:49:59;;;;;;;19.60;10.65;;;;;;;29.33;47.62;100453.31;5050042;28;20057;-72
2022/07/05 07:52:26;;;;;;;17.77;9.48;;;;;;;29.50;47.25;100463.16;5039702;28;20137;-72
2022/07/05 07:54:53;;;;;;;17.88;10.02;;;;;;;29.57;46.78;100468.91;5040552;28;20092;-71
2022/07/05 07:57:20;;;;;;;22.73;11.20;;;;;;;29.60;46.50;100455.78;5050823;28;20561;-71
2022/07/05 07:59:47;;;;;;;19.58;10.57;;;;;;;29.60;46.44;100456.59;5049345;28;20144;-71
2022/07/05 08:02:14;;;;;;;22.75;11.43;;;;;;;29.54;46.85;100464.00;5047359;28;20136;-72
2022/07/05 08:04:41;;;;;;;22.33;12.20;;;;;;;29.64;46.69;100476.75;5046273;28;20127;-71
2022/07/05 08:07:08;;;;;;;19.65;11.35;;;;;;;29.77;46.30;100477.97;5050686;28;20541;-71
2022/07/05 08:09:35;;;;;;;19.65;9.98;;;;;;;29.80;46.08;100457.00;5041906;28;20168;-72
2022/07/05 08:12:02;;;;;;;17.58;9.80;;;;;;;29.96;45.96;100457.38;5043473;28;20132;-71
2022/07/05 08:14:29;;;;;;;19.98;9.73;;;;;;;29.94;45.72;100442.56;5040318;28;20088;-71
2022/07/05 08:16:56;;;;;;;19.70;11.35;;;;;;;30.21;45.41;100476.63;5042730;28;20472;-72
2022/07/05 08:22:08;;;;;;;21.52;11.15;;;;;;;30.30;45.24;100471.25;5033938;28;20128;-72
2022/07/05 08:24:37;;;;;;;24.15;11.23;;;;;;;30.49;45.34;100472.81;5039177;28;20060;-72
2022/07/05 08:27:04;;;;;;;22.70;11.48;;;;;;;30.58;44.64;100478.13;5033162;28;20049;-71
2022/07/05 08:29:31;;;;;;;18.83;11.75;;;;;;;30.52;44.69;100453.88;5034818;28;20080;-71
2022/07/05 08:31:59;;;;;;;21.63;9.95;;;;;;;30.71;44.47;100472.72;5048075;28;20128;-71
2022/07/05 08:34:25;;;;;;;16.92;11.10;;;;;;;30.69;44.96;100478.88;5037374;28;20461;-72
2022/07/05 08:36:52;;;;;;;17.77;10.82;;;;;;;30.69;44.20;100471.06;5041491;28;20096;-72
2022/07/05 08:39:19;;;;;;;20.10;11.98;;;;;;;30.78;44.16;100476.41;5045473;28;20479;-71
2022/07/05 08:41:51;;;;;;;21.90;11.90;;;;;;;30.81;43.88;100466.09;5033826;28;20071;-71
2022/07/05 08:44:20;;;;;;;24.45;11.50;;;;;;;30.86;43.84;100463.56;5032570;28;20486;-72
2022/07/05 08:46:50;;;;;;;21.25;12.07;;;;;;;31.01;44.07;100469.22;5040345;28;20051;-72
2022/07/05 08:49:25;;;;;;;22.67;11.07;;;;;;;31.02;44.04;100457.28;5043336;28;20052;-72
2022/07/05 08:51:55;;;;;;;22.70;13.85;;;;;;;31.12;43.84;100464.22;5032411;28;20049;-73
2022/07/05 08:54:23;;;;;;;19.83;11.77;;;;;;;31.17;43.10;100460.88;5031424;28;20103;-73
2022/07/05 08:56:51;;;;;;;22.00;11.80;;;;;;;31.19;43.46;100469.13;5042437;28;20507;-72
2022/07/05 08:59:37;;;;;;;23.92;11.73;;;;;;;31.12;43.57;100452.69;5070917;28;20064;-71
2022/07/05 09:02:05;;;;;;;22.25;12.23;;;;;;;31.33;42.72;100469.84;5050890;28;20092;-73
2022/07/05 09:04:37;;;;;;;20.38;11.82;;;;;;;31.28;43.03;100455.00;5050821;28;20136;-73
2022/07/05 09:07:07;;;;;;;22.35;12.75;;;;;;;31.40;42.98;100468.97;5036844;28;20045;-73
2022/07/05 09:09:42;;;;;;;19.25;10.80;;;;;;;31.44;42.34;100457.41;5030251;28;20063;-72
2022/07/05 09:12:12;;;;;;;21.10;11.13;;;;;;;31.39;42.57;100450.84;5037678;28;20060;-72
2022/07/05 09:14:50;;;;;;;20.23;11.48;;;;;;;31.57;43.12;100473.75;5037792;28;20064;-72
2022/07/05 09:17:17;;;;;;;20.77;11.55;;;;;;;31.72;42.65;100473.59;5043627;28;20098;-72
2022/07/05 09:20:04;;;;;;;24.67;12.98;;;;;;;31.59;42.53;100444.44;5030728;28;20136;-70
2022/07/05 09:22:49;;;;;;;27.33;11.93;;;;;;;31.70;42.38;100450.13;5041494;28;20137;-72
2022/07/05 09:25:23;;;;;;;20.65;13.95;;;;;;;31.76;42.37;100463.69;5042212;28;20084;-70
2022/07/05 09:27:55;;;;;;;19.67;11.93;;;;;;;31.69;42.40;100463.72;5045376;28;20052;-71
2022/07/05 09:30:32;;;;;;;21.85;11.85;;;;;;;31.81;42.36;100466.09;5051428;28;20127;-71
2022/07/05 09:33:09;;;;;;;19.48;11.63;;;;;;;31.89;42.12;100463.16;5048047;28;20116;-71
2022/07/05 09:35:41;;;;;;;30.98;12.68;;;;;;;32.00;42.24;100461.81;5037767;28;20147;-71
2022/07/05 09:38:22;;;;;;;21.40;12.60;;;;;;;31.98;41.76;100451.91;5042439;28;20081;-71
2022/07/05 09:40:57;;;;;;;24.85;12.32;;;;;;;31.90;41.70;100435.91;5036579;28;20099;-70
2022/07/05 09:43:28;;;;;;;20.98;12.98;;;;;;;32.06;41.65;100454.28;5033004;28;20081;-71
2022/07/05 09:45:59;;;;;;;21.90;12.85;;;;;;;32.31;41.25;100474.22;5050131;28;20080;-71
2022/07/05 09:48:28;;;;;;;20.10;11.68;;;;;;;32.17;40.84;100468.63;5034286;28;20045;-71
2022/07/05 09:51:12;;;;;;;23.25;11.30;;;;;;;32.10;40.89;100468.69;5045027;28;20098;-72
2022/07/05 09:54:00;;;;;;;20.77;11.52;;;;;;;32.03;40.68;100474.53;5037393;28;20056;-70
2022/07/05 09:56:43;;;;;;;17.23;9.23;;;;;;;32.00;40.54;100466.72;5039891;28;20057;-71
2022/07/05 09:59:17;;;;;;;21.13;10.88;;;;;;;31.95;40.88;100470.09;5043049;28;20562;-71
2022/07/05 10:01:46;;;;;;;17.95;9.90;;;;;;;31.71;40.44;100490.13;5040289;28;20054;-72
2022/07/05 10:04:13;;;;;;;18.10;9.45;;;;;;;31.38;40.99;100460.75;5080157;28;20140;-71
2022/07/05 10:06:40;;;;;;;14.43;8.32;;;;;;;31.31;41.54;100485.91;5042955;28;20048;-71
2022/07/05 10:09:09;;;;;;;17.40;9.20;;;;;;;31.42;40.82;100478.03;5046734;28;20087;-71
2022/07/05 10:11:42;;;;;;;13.60;9.00;;;;;;;31.67;41.29;100474.91;5041817;28;20053;-70
2022/07/05 10:14:16;;;;;;;15.20;9.75;;;;;;;31.86;40.32;100468.53;5035516;28;20119;-71
2022/07/05 10:16:52;;;;;;;17.33;8.57;;;;;;;32.03;40.06;100471.66;5037527;28;20141;-71
2022/07/05 10:19:21;;;;;;;17.02;9.52;;;;;;;31.52;40.44;100444.53;5041829;28;20060;-72
2022/07/05 10:21:49;;;;;;;13.77;8.43;;;;;;;31.50;40.79;100475.91;5052856;28;20053;-71
2022/07/05 10:24:38;;;;;;;15.02;8.35;;;;;;;31.53;40.91;100475.88;5042694;28;20064;-72
2022/07/05 10:27:07;;;;;;;17.38;10.38;;;;;;;31.55;41.10;100482.00;5043227;28;20042;-72
2022/07/05 10:29:36;;;;;;;16.13;9.77;;;;;;;31.44;40.68;100466.88;5038244;28;20059;-72
2022/07/05 10:32:06;;;;;;;17.98;9.32;;;;;;;31.54;40.59;100482.44;5042286;28;20076;-72
2022/07/05 10:34:33;;;;;;;18.33;10.07;;;;;;;31.49;40.00;100459.81;5047697;28;20136;-72
2022/07/05 10:37:22;;;;;;;13.75;8.50;;;;;;;31.70;40.74;100465.41;5041309;28;20280;-73
2022/07/05 10:39:49;;;;;;;15.40;7.82;;;;;;;31.89;40.28;100474.72;5037596;28;20069;-70
2022/07/05 10:42:18;;;;;;;15.98;8.38;;;;;;;32.01;39.75;100475.00;5038477;28;20149;-72
2022/07/05 10:44:45;;;;;;;17.50;7.07;;;;;;;32.10;39.70;100488.91;5050134;28;20077;-72
2022/07/05 10:47:12;;;;;;;12.70;7.18;;;;;;;32.07;40.03;100470.38;5044223;28;20579;-72
2022/07/05 10:49:40;;;;;;;14.82;7.32;;;;;;;32.42;39.04;100473.31;5040121;28;20791;-72
2022/07/05 10:52:24;;;;;;;13.75;7.68;;;;;;;32.51;39.18;100480.19;5038334;28;20052;-73
2022/07/05 10:55:20;;;;;;;14.32;6.93;;;;;;;32.68;39.25;100478.28;5046441;28;20579;-72
2022/07/05 10:58:19;;;;;;;12.32;7.18;;;;;;;32.74;39.41;100470.75;5042532;28;20535;-72
2022/07/05 11:00:49;;;;;;;11.55;6.80;;;;;;;32.74;38.57;100475.75;5044386;28;20095;-73
2022/07/05 11:03:40;;;;;;;12.70;7.40;;;;;;;32.54;39.21;100473.50;5043128;28;20122;-72
2022/07/05 11:06:07;;;;;;;14.70;8.23;;;;;;;32.65;39.18;100456.06;5039482;28;20057;-72
2022/07/05 11:08:59;;;;;;;12.45;7.10;;;;;;;33.09;38.83;100474.41;5041238;28;20132;-70
2022/07/05 11:11:27;;;;;;;12.95;6.70;;;;;;;33.24;38.56;100475.81;5038632;28;20136;-71
2022/07/05 11:13:58;;;;;;;13.48;6.30;;;;;;;33.10;38.31;100434.75;5039088;28;20053;-71
2022/07/05 11:16:26;;;;;;;11.13;7.07;;;;;;;33.50;37.96;100482.03;5040778;28;20085;-71
2022/07/05 11:19:08;;;;;;;10.10;5.70;;;;;;;33.62;37.86;100466.94;5035180;28;20041;-72
2022/07/05 11:21:36;;;;;;;10.88;6.47;;;;;;;33.40;38.39;100466.47;5033058;28;20096;-72
2022/07/05 11:24:19;;;;;;;10.82;6.00;;;;;;;33.65;38.39;100468.13;5035098;28;20083;-71
2022/07/05 11:26:48;;;;;;;14.80;6.80;;;;;;;33.93;37.45;100452.28;5041271;28;20080;-71
2022/07/05 11:29:43;;;;;;;7.45;5.35;;;;;;;33.96;37.72;100468.78;5037563;28;20083;-72
2022/07/05 11:32:15;;;;;;;10.13;6.18;;;;;;;33.89;37.43;100474.72;5036427;28;20103;-71